Oro Valley, AZ

7:29 AM MST on December 18, 2014 (GMT -0700)
Rancho Vistoso | Change Station
CLOSE
Current Station
Personal Weather Station
Location: Oro Valley, AZ
Elevation: 2792 ft
Nearby Weather Stations

Elev 2792 ft 32.43 °N, 110.97 °W | Updated 5 seconds ago

Overcast
Overcast
44.2 °F
Feels Like 44 °F
N
0.0
Wind Variable Wind from SSW
Gusts 2.0 mph

Today
High -- | Low -- °F
--% Chance of Precip.
Yesterday
High -- | Low -- °F
Precip. -- in
7:19 AM 5:21 PM
Waning Crescent, 14% visible
Pressure 30.09 in
Visibility 10.0 miles
Clouds Clear
Windchill 44 °F
Dew Point 43 °F
Humidity 96%
Rainfall 0.00 in
Snow Depth Not available.
UV 0 out of 12
Pollen 4.20 out of 12
Air Quality Not available.
Flu Activity Not available.
SPECI KDMA 181426Z AUTO 14007KT 10SM CLR 09/09 A3009 RMK AO2 DZB21 $

More Conditions Fewer Conditions

Pressure 30.09 in
Visibility 10.0 miles
Clouds Clear
Windchill 44 °F
Dew Point 43 °F
Humidity 96%
Rainfall 0.00 in
Snow Depth Not available.
UV 0 out of 12
Pollen 4.20 out of 12
Air Quality Not available.
Flu Activity Not available.
SPECI KDMA 181426Z AUTO 14007KT 10SM CLR 09/09 A3009 RMK AO2 DZB21 $

More Conditions Fewer Conditions

Nowcast | as of 6:11 am MST on December 18, 2014

Scattered areas of light rain or sprinkles will pass over the region for the next hour or two. Elevations above 7000 feet will see mainly flurries but isolated areas ridge tops could get another inch of snow before tapering off later this morning. Expect areas of fog in low lying and sheltered areas. Visibility along secondary roads could briefly get a low as a mile. Skies will remain cloudy for the rest of the morning hours.

×

10-Day Weather Forecast

Almanac

Astronomy

Dec. 18, 2014 Rise Set
Actual Time
Civil Twilight
Nautical Twilight
Astronomical Twilight
Moon
Length of Visible Light
Length of Day
Tomorrow will be .
, % of the Moon is Illuminated

Today's Extremes

State Highs State Lows

Community

WunderPhotos

Upload Photos

1,778,929 photos uploaded!

WunderBlogs® & News

Nearby

Air Quality

  Air Quality AQ Index Pollutant
Not available.

Snow Depth

Station Depth Elevation

Earthquake Activity

City Distance Mag. Time & Date
Minimum magnitude displayed is 2.5.

Coastal Water Temperatures

Place Temperature

Nearby Weather Stations